createdAt,value
2019-01-29T00:01:15.234Z,36.60
2019-01-29T00:03:48.746Z,36.50
2019-01-29T00:06:22.341Z,36.60
2019-01-29T00:08:56.022Z,36.50
2019-01-29T00:11:29.534Z,36.60
2019-01-29T00:14:02.965Z,36.60
2019-01-29T00:16:36.552Z,36.80
2019-01-29T00:19:10.155Z,36.90
2019-01-29T00:21:44.030Z,36.90
2019-01-29T00:24:17.560Z,36.90
2019-01-29T00:26:51.260Z,36.80
2019-01-29T00:29:24.763Z,36.70
2019-01-29T00:31:58.312Z,36.50
2019-01-29T00:34:32.012Z,36.50
2019-01-29T00:37:05.464Z,36.50
2019-01-29T00:39:39.293Z,36.50
2019-01-29T00:42:12.817Z,36.40
2019-01-29T00:44:46.370Z,36.30
2019-01-29T00:47:20.308Z,36.10
2019-01-29T00:49:54.505Z,36.10
2019-01-29T00:52:28.257Z,36.10
2019-01-29T00:55:01.585Z,36.20
2019-01-29T00:57:35.701Z,36.20
2019-01-29T01:00:11.521Z,36.20
2019-01-29T01:02:45.038Z,36.20
2019-01-29T01:05:19.040Z,36.30
2019-01-29T01:07:52.961Z,36.40
2019-01-29T01:10:26.575Z,36.40
2019-01-29T01:13:00.579Z,36.60
2019-01-29T01:15:34.234Z,36.80
2019-01-29T01:18:07.922Z,37.00
2019-01-29T01:20:41.699Z,37.20
2019-01-29T01:23:15.944Z,37.30
2019-01-29T01:25:49.307Z,37.60
2019-01-29T01:28:22.403Z,37.80
2019-01-29T01:30:55.318Z,38.00
2019-01-29T01:33:28.732Z,38.20
2019-01-29T01:36:02.181Z,38.30
2019-01-29T01:38:36.430Z,38.20
2019-01-29T01:41:09.201Z,38.20
2019-01-29T01:43:42.373Z,38.20
2019-01-29T01:46:15.239Z,38.30
2019-01-29T01:48:48.742Z,38.30
2019-01-29T01:51:21.866Z,38.20
2019-01-29T01:53:55.010Z,38.20
2019-01-29T01:56:27.809Z,38.30
2019-01-29T01:59:00.995Z,38.60
2019-01-29T02:01:33.771Z,38.50
2019-01-29T02:04:06.967Z,38.30
2019-01-29T02:06:40.147Z,38.00
2019-01-29T02:09:13.588Z,37.70
2019-01-29T02:11:47.300Z,36.90
2019-01-29T02:14:20.344Z,36.30
2019-01-29T02:16:53.752Z,35.80
2019-01-29T02:19:27.256Z,35.30
2019-01-29T02:22:02.000Z,34.80
2019-01-29T02:24:35.461Z,34.40
2019-01-29T02:27:09.477Z,34.10
2019-01-29T02:29:43.185Z,33.80
2019-01-29T02:32:16.002Z,33.60
2019-01-29T02:34:49.350Z,33.40
2019-01-29T02:37:22.117Z,33.30
2019-01-29T02:39:55.135Z,33.20
2019-01-29T02:42:28.111Z,33.00
2019-01-29T02:45:00.990Z,32.80
2019-01-29T02:47:34.123Z,32.70
2019-01-29T02:50:07.693Z,32.70
2019-01-29T02:52:41.290Z,32.70
2019-01-29T02:55:16.279Z,32.60
2019-01-29T02:57:49.442Z,32.50
2019-01-29T03:00:23.851Z,32.40
2019-01-29T03:02:57.212Z,32.40
2019-01-29T03:05:30.149Z,32.20
2019-01-29T03:08:03.176Z,32.10
2019-01-29T03:10:36.173Z,32.10
2019-01-29T03:13:09.575Z,32.00
2019-01-29T03:15:42.480Z,31.90
2019-01-29T03:18:15.370Z,31.80
2019-01-29T03:20:48.229Z,31.70
2019-01-29T03:23:27.224Z,31.60
2019-01-29T03:25:56.118Z,31.50
2019-01-29T03:28:29.278Z,31.40
2019-01-29T03:31:02.228Z,31.30
2019-01-29T03:33:35.191Z,31.20
2019-01-29T03:36:08.033Z,31.10
2019-01-29T03:38:42.374Z,31.10
2019-01-29T03:41:15.640Z,31.00
2019-01-29T03:43:48.870Z,30.90
2019-01-29T03:46:21.795Z,30.80
2019-01-29T03:48:55.285Z,30.70
2019-01-29T03:51:29.103Z,30.60
2019-01-29T03:54:02.454Z,30.50
2019-01-29T03:56:35.857Z,30.50
2019-01-29T03:59:09.162Z,30.40
2019-01-29T04:01:42.344Z,30.30
2019-01-29T04:04:15.169Z,30.30
2019-01-29T04:06:48.179Z,30.30
2019-01-29T04:09:21.376Z,30.20
2019-01-29T04:11:54.611Z,30.20
2019-01-29T04:14:27.604Z,30.10
2019-01-29T04:17:00.684Z,30.10
2019-01-29T04:19:33.665Z,30.00
2019-01-29T04:22:06.602Z,30.00
2019-01-29T04:24:39.659Z,30.00
2019-01-29T04:27:13.082Z,30.00
2019-01-29T04:29:46.084Z,29.90
2019-01-29T04:32:19.223Z,29.80
2019-01-29T04:34:52.102Z,29.80
2019-01-29T04:37:25.692Z,29.70
2019-01-29T04:39:58.573Z,29.60
2019-01-29T04:42:32.024Z,29.60
2019-01-29T04:45:04.995Z,29.50
2019-01-29T04:47:38.143Z,29.40
2019-01-29T04:50:13.236Z,29.40
2019-01-29T04:52:46.523Z,29.40
2019-01-29T04:55:20.843Z,29.40
2019-01-29T04:57:54.053Z,29.30
2019-01-29T05:00:28.306Z,29.20
2019-01-29T05:03:01.694Z,29.10
2019-01-29T05:05:34.992Z,29.10
2019-01-29T05:08:08.222Z,29.00
2019-01-29T05:10:41.116Z,28.90
2019-01-29T05:13:14.246Z,28.90
2019-01-29T05:15:47.518Z,28.80
2019-01-29T05:18:20.373Z,28.70
2019-01-29T05:20:53.986Z,28.60
2019-01-29T05:23:26.833Z,28.60
2019-01-29T05:26:00.191Z,28.50
2019-01-29T05:28:33.110Z,28.30
2019-01-29T05:31:06.157Z,28.30
2019-01-29T05:33:39.089Z,28.20
2019-01-29T05:36:12.362Z,28.10
2019-01-29T05:38:45.277Z,28.00
2019-01-29T05:41:18.374Z,27.90
2019-01-29T05:43:51.447Z,27.90
2019-01-29T05:46:25.249Z,27.90
2019-01-29T05:48:58.404Z,27.80
2019-01-29T05:51:35.625Z,27.80
2019-01-29T05:54:15.815Z,27.70
2019-01-29T05:56:43.323Z,27.70
2019-01-29T05:59:16.169Z,27.70
2019-01-29T06:01:49.090Z,27.60
2019-01-29T06:04:21.872Z,27.50
2019-01-29T06:06:54.865Z,27.40
2019-01-29T06:09:27.863Z,27.40
2019-01-29T06:12:02.176Z,27.30
2019-01-29T06:14:35.101Z,27.20
2019-01-29T06:17:08.829Z,27.10
2019-01-29T06:19:41.861Z,27.10
2019-01-29T06:22:15.029Z,27.10
2019-01-29T06:24:48.068Z,27.00
2019-01-29T06:27:21.381Z,27.00
2019-01-29T06:29:54.599Z,27.00
2019-01-29T06:32:28.051Z,26.90
2019-01-29T06:35:02.480Z,26.80
2019-01-29T06:37:35.614Z,26.70
2019-01-29T06:40:11.061Z,26.60
2019-01-29T06:42:44.365Z,26.50
2019-01-29T06:45:19.943Z,26.40
2019-01-29T06:47:53.122Z,26.40
2019-01-29T06:50:27.686Z,26.30
2019-01-29T06:53:01.318Z,26.30
2019-01-29T06:55:34.322Z,26.20
2019-01-29T06:58:07.664Z,26.10
2019-01-29T07:00:40.386Z,26.10
2019-01-29T07:03:14.197Z,26.00
2019-01-29T07:05:47.286Z,26.00
2019-01-29T07:08:20.848Z,25.90
2019-01-29T07:10:53.706Z,25.90
2019-01-29T07:13:26.767Z,25.80
2019-01-29T07:16:00.811Z,25.80
2019-01-29T07:18:35.606Z,25.70
2019-01-29T07:21:09.843Z,25.70
2019-01-29T07:23:42.931Z,25.60
2019-01-29T07:26:15.678Z,25.50
2019-01-29T07:28:48.656Z,25.50
2019-01-29T07:31:21.447Z,25.40
2019-01-29T07:34:03.349Z,25.30
2019-01-29T07:36:40.503Z,25.20
2019-01-29T07:39:13.873Z,25.20
2019-01-29T07:41:46.704Z,25.10
2019-01-29T07:44:19.729Z,25.10
2019-01-29T07:46:52.702Z,25.10
2019-01-29T07:49:25.565Z,25.00
2019-01-29T07:51:58.545Z,25.00
2019-01-29T07:54:33.447Z,24.90
2019-01-29T07:57:07.085Z,24.90
2019-01-29T07:59:40.121Z,24.90
2019-01-29T08:02:13.081Z,24.90
2019-01-29T08:04:45.838Z,24.80
2019-01-29T08:07:19.241Z,24.80
2019-01-29T08:09:52.048Z,24.70
2019-01-29T08:12:25.646Z,24.70
2019-01-29T08:14:58.750Z,24.70
2019-01-29T08:17:31.777Z,24.70
2019-01-29T08:20:05.185Z,24.70
2019-01-29T08:22:38.213Z,24.60
2019-01-29T08:25:15.398Z,24.60
2019-01-29T08:27:48.693Z,24.60
2019-01-29T08:30:22.268Z,24.60
2019-01-29T08:32:55.353Z,24.50
2019-01-29T08:35:28.433Z,24.50
2019-01-29T08:38:01.731Z,24.50
2019-01-29T08:40:34.598Z,24.40
2019-01-29T08:43:07.695Z,24.40
2019-01-29T08:45:40.688Z,24.40
2019-01-29T08:48:14.843Z,24.40
2019-01-29T08:50:47.792Z,24.40
2019-01-29T08:53:20.838Z,24.40
2019-01-29T08:55:53.975Z,24.30
2019-01-29T08:58:27.680Z,24.40
2019-01-29T09:01:00.715Z,24.40
2019-01-29T09:03:33.828Z,24.40
2019-01-29T09:06:06.824Z,24.40
2019-01-29T09:08:41.307Z,24.30
2019-01-29T09:11:14.212Z,24.30
2019-01-29T09:13:47.352Z,24.20
2019-01-29T09:16:20.143Z,24.20
2019-01-29T09:18:53.443Z,24.10
2019-01-29T09:21:26.609Z,24.20
2019-01-29T09:24:00.792Z,24.10
2019-01-29T09:26:33.720Z,24.10
2019-01-29T09:29:06.728Z,24.10
2019-01-29T09:31:39.866Z,24.10
2019-01-29T09:34:13.085Z,24.10
2019-01-29T09:36:45.861Z,24.10
2019-01-29T09:39:18.961Z,24.10
2019-01-29T09:41:51.933Z,24.10
2019-01-29T09:44:25.182Z,24.10
2019-01-29T09:46:58.073Z,24.00
2019-01-29T09:49:31.111Z,24.00
2019-01-29T09:52:03.950Z,24.00
2019-01-29T09:54:37.168Z,24.00
2019-01-29T09:57:10.175Z,24.00
2019-01-29T09:59:43.414Z,24.00
2019-01-29T10:02:16.333Z,23.90
2019-01-29T10:04:49.337Z,23.90
2019-01-29T10:07:24.657Z,23.90
2019-01-29T10:09:57.733Z,23.90
2019-01-29T10:12:30.514Z,23.80
2019-01-29T10:15:03.486Z,23.80
2019-01-29T10:17:36.692Z,23.80
2019-01-29T10:20:10.385Z,23.80
2019-01-29T10:22:43.241Z,23.80
2019-01-29T10:25:17.645Z,23.70
2019-01-29T10:27:50.686Z,23.70
2019-01-29T10:30:25.862Z,23.70
2019-01-29T10:32:58.701Z,23.70
2019-01-29T10:35:32.580Z,23.70
2019-01-29T10:38:05.596Z,23.60
2019-01-29T10:40:38.734Z,23.60
2019-01-29T10:43:11.473Z,23.60
2019-01-29T10:45:44.437Z,23.60
2019-01-29T10:48:17.433Z,23.60
2019-01-29T10:50:50.642Z,23.60
2019-01-29T10:53:23.422Z,23.60
2019-01-29T10:55:56.525Z,23.60
2019-01-29T10:58:30.399Z,23.60
2019-01-29T11:01:03.745Z,23.60
2019-01-29T11:03:36.598Z,23.60
2019-01-29T11:06:09.431Z,23.60
2019-01-29T11:08:42.584Z,23.60
2019-01-29T11:11:16.488Z,23.50
2019-01-29T11:13:49.371Z,23.50
2019-01-29T11:16:22.365Z,23.50
2019-01-29T11:19:15.022Z,23.50
2019-01-29T11:21:48.489Z,23.40
2019-01-29T11:24:21.419Z,23.40
2019-01-29T11:26:54.371Z,23.40
2019-01-29T11:29:27.172Z,23.40
2019-01-29T11:32:00.242Z,23.40
2019-01-29T11:34:33.133Z,23.40
2019-01-29T11:37:06.426Z,23.40
2019-01-29T11:39:40.518Z,23.30
2019-01-29T11:42:13.520Z,23.30
2019-01-29T11:44:46.199Z,23.30
2019-01-29T11:47:19.295Z,23.30
2019-01-29T11:49:52.083Z,23.30
2019-01-29T11:52:24.878Z,23.30
2019-01-29T11:54:57.652Z,23.20
2019-01-29T11:57:30.496Z,23.20
2019-01-29T12:00:03.428Z,23.20
2019-01-29T12:02:36.609Z,23.20
2019-01-29T12:05:09.769Z,23.20
2019-01-29T12:07:42.703Z,23.20
2019-01-29T12:10:15.674Z,23.20
2019-01-29T12:12:48.692Z,23.20
2019-01-29T12:15:25.827Z,23.20
2019-01-29T12:17:58.702Z,23.20
2019-01-29T12:20:31.734Z,23.20
2019-01-29T12:23:05.174Z,23.20
2019-01-29T12:25:38.007Z,23.20
2019-01-29T12:28:10.963Z,23.20
2019-01-29T12:30:43.759Z,23.20
2019-01-29T12:33:16.825Z,23.10
2019-01-29T12:35:49.740Z,23.10
2019-01-29T12:38:22.732Z,23.10
2019-01-29T12:40:55.392Z,23.10
2019-01-29T12:43:28.301Z,23.10
2019-01-29T12:46:01.350Z,23.10
2019-01-29T12:48:34.253Z,23.10
2019-01-29T12:51:08.303Z,23.10
2019-01-29T12:53:41.052Z,23.00
2019-01-29T12:56:21.434Z,23.00
2019-01-29T12:58:48.254Z,23.00
2019-01-29T13:01:21.222Z,23.00
2019-01-29T13:03:54.014Z,23.00
2019-01-29T13:06:27.306Z,23.00
2019-01-29T13:09:00.315Z,23.00
2019-01-29T13:11:33.379Z,22.90
2019-01-29T13:14:06.468Z,22.90
2019-01-29T13:16:39.659Z,22.90
2019-01-29T13:19:12.552Z,22.90
2019-01-29T13:21:45.659Z,22.90
2019-01-29T13:24:18.524Z,22.90
2019-01-29T13:26:52.017Z,22.90
2019-01-29T13:29:25.132Z,22.90
2019-01-29T13:31:58.097Z,22.80
2019-01-29T13:34:30.893Z,22.80
2019-01-29T13:37:04.187Z,22.80
2019-01-29T13:39:37.077Z,22.80
2019-01-29T13:42:09.969Z,22.80
2019-01-29T13:44:43.030Z,22.80
2019-01-29T13:47:15.802Z,22.70
2019-01-29T13:49:48.815Z,22.80
2019-01-29T13:52:21.575Z,22.70
2019-01-29T13:54:54.695Z,22.70
2019-01-29T13:57:27.552Z,22.70
2019-01-29T14:00:00.527Z,22.70
2019-01-29T14:02:33.525Z,22.70
2019-01-29T14:05:06.601Z,22.70
2019-01-29T14:07:39.502Z,22.60
2019-01-29T14:10:14.653Z,22.60
2019-01-29T14:12:47.520Z,22.60
2019-01-29T14:15:28.534Z,22.60
2019-01-29T14:18:01.299Z,22.50
2019-01-29T14:20:34.191Z,22.50
2019-01-29T14:23:08.201Z,22.50
2019-01-29T14:25:41.125Z,22.50
2019-01-29T14:28:14.250Z,22.50
2019-01-29T14:30:47.026Z,22.50
2019-01-29T14:33:20.034Z,22.50
2019-01-29T14:35:53.019Z,22.50
2019-01-29T14:38:34.455Z,22.50
2019-01-29T14:41:07.259Z,22.50
2019-01-29T14:43:42.074Z,22.50
2019-01-29T14:46:15.000Z,22.50
2019-01-29T14:48:48.247Z,22.40
2019-01-29T14:51:21.369Z,22.40
2019-01-29T14:53:54.246Z,22.50
2019-01-29T14:56:27.208Z,22.50
2019-01-29T14:59:00.418Z,22.40
2019-01-29T15:01:33.737Z,22.40
2019-01-29T15:04:06.902Z,22.40
2019-01-29T15:06:39.910Z,22.40
2019-01-29T15:09:12.865Z,22.40
2019-01-29T15:11:45.675Z,22.40
2019-01-29T15:14:19.075Z,22.30
2019-01-29T15:16:53.079Z,22.30
2019-01-29T15:19:26.564Z,22.30
2019-01-29T15:21:59.522Z,22.30
2019-01-29T15:24:32.459Z,22.30
2019-01-29T15:27:06.055Z,22.20
2019-01-29T15:29:39.040Z,22.20
2019-01-29T15:32:12.036Z,22.20
2019-01-29T15:34:44.817Z,22.20
2019-01-29T15:37:18.110Z,22.20
2019-01-29T15:39:50.865Z,22.20
2019-01-29T15:42:23.761Z,22.20
2019-01-29T15:44:56.656Z,22.20
2019-01-29T15:47:29.416Z,22.30
2019-01-29T15:50:02.320Z,22.30
2019-01-29T15:52:35.845Z,22.30
2019-01-29T15:55:10.752Z,22.30
2019-01-29T15:57:43.672Z,22.40
2019-01-29T16:00:20.824Z,22.40
2019-01-29T16:02:53.732Z,22.40
2019-01-29T16:05:28.566Z,22.40
2019-01-29T16:08:01.612Z,22.50
2019-01-29T16:10:39.866Z,22.50
2019-01-29T16:13:11.348Z,22.50
2019-01-29T16:15:44.684Z,22.50
2019-01-29T16:18:18.782Z,22.50
2019-01-29T16:20:51.674Z,22.50
2019-01-29T16:23:24.861Z,22.50
2019-01-29T16:25:57.661Z,22.50
2019-01-29T16:28:30.498Z,22.50
2019-01-29T16:31:03.474Z,22.50
2019-01-29T16:33:36.711Z,22.50
2019-01-29T16:36:09.594Z,22.60
2019-01-29T16:38:42.566Z,22.60
2019-01-29T16:41:15.352Z,22.50
2019-01-29T16:43:48.348Z,22.50
2019-01-29T16:46:21.135Z,22.50
2019-01-29T16:48:54.732Z,22.60
2019-01-29T16:51:27.720Z,22.60
2019-01-29T16:54:00.701Z,22.50
2019-01-29T16:56:33.484Z,22.50
2019-01-29T16:59:07.596Z,22.50
2019-01-29T17:01:41.517Z,22.50
2019-01-29T17:04:15.563Z,22.50
2019-01-29T17:06:52.532Z,22.50
2019-01-29T17:09:26.428Z,22.50
2019-01-29T17:11:59.604Z,22.50
2019-01-29T17:14:32.588Z,22.50
2019-01-29T17:17:07.212Z,22.50
2019-01-29T17:19:40.139Z,22.50
2019-01-29T17:22:15.580Z,22.50
2019-01-29T17:24:49.579Z,22.50
2019-01-29T17:27:22.471Z,22.50
2019-01-29T17:29:55.636Z,22.50
2019-01-29T17:32:30.810Z,22.50
2019-01-29T17:35:04.916Z,22.50
2019-01-29T17:37:38.944Z,22.50
2019-01-29T17:40:17.083Z,22.50
2019-01-29T17:42:49.991Z,22.50
2019-01-29T17:45:25.180Z,22.50
2019-01-29T17:47:59.453Z,22.50
2019-01-29T17:50:34.541Z,22.50
2019-01-29T17:53:07.564Z,22.50
2019-01-29T17:55:41.552Z,22.50
2019-01-29T17:58:14.675Z,22.50
2019-01-29T18:00:48.714Z,22.50
2019-01-29T18:03:21.865Z,22.50
2019-01-29T18:05:55.041Z,22.50
2019-01-29T18:08:28.042Z,22.50
2019-01-29T18:11:01.477Z,22.60
2019-01-29T18:13:35.036Z,22.60
2019-01-29T18:16:08.024Z,22.60
2019-01-29T18:18:40.913Z,22.60
2019-01-29T18:21:14.572Z,22.60
2019-01-29T18:23:52.227Z,22.60
2019-01-29T18:26:25.562Z,22.60
2019-01-29T18:28:58.700Z,22.60
2019-01-29T18:31:31.492Z,22.60
2019-01-29T18:34:04.455Z,22.60
2019-01-29T18:36:37.268Z,22.60
2019-01-29T18:39:11.224Z,22.60
2019-01-29T18:41:44.040Z,22.70
2019-01-29T18:44:17.023Z,22.70
2019-01-29T18:46:49.805Z,22.70
2019-01-29T18:49:22.709Z,22.80
2019-01-29T18:51:55.701Z,22.80
2019-01-29T18:54:29.660Z,22.80
2019-01-29T18:57:02.574Z,22.90
2019-01-29T18:59:35.473Z,22.90
2019-01-29T19:02:08.453Z,22.90
2019-01-29T19:04:41.658Z,23.00
2019-01-29T19:07:14.524Z,23.00
2019-01-29T19:09:47.605Z,23.00
2019-01-29T19:12:20.394Z,22.90
2019-01-29T19:14:53.461Z,22.90
2019-01-29T19:17:26.238Z,22.90
2019-01-29T19:19:59.226Z,23.00
2019-01-29T19:22:32.006Z,23.00
2019-01-29T19:25:05.070Z,23.00
2019-01-29T19:27:38.123Z,23.00
2019-01-29T19:30:12.955Z,23.00
2019-01-29T19:32:45.805Z,23.10
2019-01-29T19:35:18.778Z,23.30
2019-01-29T19:37:51.574Z,23.40
2019-01-29T19:40:24.642Z,23.50
2019-01-29T19:42:57.551Z,23.60
2019-01-29T19:45:36.169Z,23.70
2019-01-29T19:48:10.973Z,23.80
2019-01-29T19:50:44.431Z,23.80
2019-01-29T19:53:17.289Z,23.90
2019-01-29T19:55:49.983Z,23.90
2019-01-29T19:58:31.780Z,23.90
2019-01-29T20:00:57.064Z,24.00
2019-01-29T20:03:30.034Z,24.00
2019-01-29T20:06:02.822Z,24.00
2019-01-29T20:08:35.820Z,24.10
2019-01-29T20:11:08.796Z,24.20
2019-01-29T20:13:41.886Z,24.30
2019-01-29T20:16:14.785Z,24.40
2019-01-29T20:18:49.055Z,24.50
2019-01-29T20:21:21.572Z,24.60
2019-01-29T20:23:54.538Z,24.70
2019-01-29T20:26:27.492Z,24.70
2019-01-29T20:29:00.576Z,24.80
2019-01-29T20:31:33.687Z,24.80
2019-01-29T20:34:06.599Z,24.80
2019-01-29T20:36:39.804Z,24.80
2019-01-29T20:39:12.769Z,24.90
2019-01-29T20:41:47.759Z,25.10
2019-01-29T20:44:20.702Z,25.10
2019-01-29T20:46:54.490Z,25.30
2019-01-29T20:49:27.501Z,25.40
2019-01-29T20:52:01.469Z,25.50
2019-01-29T20:54:34.242Z,25.50
2019-01-29T20:57:07.248Z,25.50
2019-01-29T20:59:40.913Z,25.70
2019-01-29T21:02:13.707Z,25.90
2019-01-29T21:04:46.683Z,25.80
2019-01-29T21:07:19.687Z,26.10
2019-01-29T21:09:52.654Z,26.20
2019-01-29T21:12:25.458Z,26.40
2019-01-29T21:15:00.917Z,26.60
2019-01-29T21:17:32.654Z,26.80
2019-01-29T21:20:24.819Z,27.10
2019-01-29T21:22:57.877Z,27.40
2019-01-29T21:25:30.656Z,27.60
2019-01-29T21:28:03.626Z,27.90
2019-01-29T21:30:38.101Z,28.00
2019-01-29T21:33:11.025Z,28.20
2019-01-29T21:35:43.823Z,28.40
2019-01-29T21:38:16.923Z,28.60
2019-01-29T21:40:49.806Z,28.80
2019-01-29T21:43:22.763Z,28.90
2019-01-29T21:45:55.651Z,29.00
2019-01-29T21:48:28.763Z,29.20
2019-01-29T21:51:01.549Z,29.40
2019-01-29T21:53:34.529Z,29.40
2019-01-29T21:56:07.293Z,29.50
2019-01-29T21:58:40.092Z,29.60
2019-01-29T22:01:13.702Z,29.70
2019-01-29T22:03:46.347Z,29.90
2019-01-29T22:06:20.216Z,30.10
2019-01-29T22:08:53.097Z,30.30
2019-01-29T22:11:26.053Z,30.40
2019-01-29T22:14:00.637Z,30.50
2019-01-29T22:16:33.036Z,30.80
2019-01-29T22:19:05.715Z,30.80
2019-01-29T22:21:38.865Z,31.10
2019-01-29T22:24:11.813Z,31.40
2019-01-29T22:26:44.922Z,31.20
2019-01-29T22:29:23.169Z,30.70
2019-01-29T22:31:51.875Z,30.90
2019-01-29T22:34:24.777Z,31.30
2019-01-29T22:36:57.770Z,31.70
2019-01-29T22:39:30.541Z,32.00
2019-01-29T22:42:04.015Z,32.20
2019-01-29T22:44:36.926Z,32.00
2019-01-29T22:47:09.918Z,32.40
2019-01-29T22:49:42.687Z,32.30
2019-01-29T22:52:16.671Z,31.70
2019-01-29T22:54:49.487Z,32.00
2019-01-29T22:57:22.399Z,32.50
2019-01-29T22:59:55.470Z,31.70
2019-01-29T23:02:28.440Z,31.50
2019-01-29T23:05:01.240Z,32.30
2019-01-29T23:07:34.817Z,32.80
2019-01-29T23:10:10.373Z,33.40
2019-01-29T23:12:43.141Z,33.70
2019-01-29T23:15:17.989Z,34.00
2019-01-29T23:17:52.974Z,34.30
2019-01-29T23:20:26.209Z,34.60
2019-01-29T23:22:59.222Z,34.90
2019-01-29T23:25:34.093Z,35.20
2019-01-29T23:28:07.546Z,35.30
2019-01-29T23:30:41.134Z,35.60
2019-01-29T23:33:14.535Z,35.50
2019-01-29T23:35:47.383Z,34.30
2019-01-29T23:38:21.930Z,33.50
2019-01-29T23:40:56.120Z,33.80
2019-01-29T23:43:28.925Z,34.10
2019-01-29T23:46:01.913Z,34.40
2019-01-29T23:48:35.109Z,34.60
2019-01-29T23:51:08.085Z,34.90
2019-01-29T23:53:40.758Z,35.10
2019-01-29T23:56:14.256Z,35.30
2019-01-29T23:58:47.058Z,34.80
